Ross River, Canada
Current Conditions -  °F | °C
As of 7:00 AM on Saturday 20 Dec 2014 (Local Time) from CZFA Reporting Station
Scattered Clouds Scattered Clouds  
Wind Chill: -8°   Ceiling: Unl
Heat Index: -8°   Visibility: 30mi
Dew Point: -11°   Wind: 3mph
Humidity: 84%   Direction: 210°SSW
Pressure: 29.32"   Gusts: NA
Location:  61.98°N, 132.45°W
Report Text: CZFA 201500Z 21003KT 100V210 30SM SCT042 M22/M24 A2932 RMK SC4 FROIN AURBO CLIMAT -14.1/-23.2/0.8CM/0.6MWE 47020 SLP999
Loading
Personal Weather Stations






























Interactive Weather Map New forecast layout! Learn more

10-Day Weather Forecast

Advertisements
Track Severe Weather on mobile